createdAt,value
2022-10-18T00:00:17.185Z,101427.91
2022-10-18T00:02:43.702Z,101427.44
2022-10-18T00:05:10.268Z,101429.47
2022-10-18T00:07:36.880Z,101437.94
2022-10-18T00:10:04.626Z,101432.59
2022-10-18T00:12:36.247Z,101431.06
2022-10-18T00:15:05.174Z,101435.72
2022-10-18T00:17:32.018Z,101433.41
2022-10-18T00:19:58.754Z,101431.84
2022-10-18T00:22:25.437Z,101426.84
2022-10-18T00:24:52.065Z,101425.31
2022-10-18T00:27:19.021Z,101425.31
2022-10-18T00:29:45.712Z,101422.28
2022-10-18T00:32:12.357Z,101427.25
2022-10-18T00:34:40.257Z,101422.66
2022-10-18T00:37:06.800Z,101431.88
2022-10-18T00:39:33.432Z,101431.47
2022-10-18T00:41:59.900Z,101424.19
2022-10-18T00:44:26.343Z,101421.06
2022-10-18T00:46:56.627Z,101419.91
2022-10-18T00:49:42.332Z,101415.72
2022-10-18T00:52:13.409Z,101425.34
2022-10-18T00:54:42.949Z,101426.47
2022-10-18T00:57:10.437Z,101421.88
2022-10-18T00:59:37.755Z,101408.41
2022-10-18T01:02:06.111Z,101407.25
2022-10-18T01:04:32.841Z,101405.75
2022-10-18T01:07:21.293Z,101409.16
2022-10-18T01:10:05.925Z,101406.88
2022-10-18T01:13:03.036Z,101400.75
2022-10-18T01:15:49.726Z,101409.97
2022-10-18T01:18:16.249Z,101407.25
2022-10-18T01:21:10.345Z,101403.44
2022-10-18T01:23:50.761Z,101401.81
2022-10-18T01:26:35.977Z,101403.28
2022-10-18T01:29:22.733Z,101400.28
2022-10-18T01:32:07.280Z,101391.88
2022-10-18T01:34:37.007Z,101388.03
2022-10-18T01:37:09.191Z,101394.97
2022-10-18T01:39:38.770Z,101398.41
2022-10-18T01:42:09.725Z,101399.53
2022-10-18T01:44:38.950Z,101394.19
2022-10-18T01:47:07.496Z,101386.91
2022-10-18T01:49:34.391Z,101394.22
2022-10-18T01:52:01.109Z,101384.97
2022-10-18T01:54:33.292Z,101381.91
2022-10-18T01:57:29.052Z,101388.84
2022-10-18T02:00:10.591Z,101385.72
2022-10-18T02:03:01.288Z,101378.81
2022-10-18T02:05:41.407Z,101385.34
2022-10-18T02:08:23.769Z,101369.63
2022-10-18T02:11:06.504Z,101374.22
2022-10-18T02:13:38.652Z,101375.00
2022-10-18T02:16:10.909Z,101376.91
2022-10-18T02:18:42.031Z,101375.38
2022-10-18T02:21:12.208Z,101375.00
2022-10-18T02:23:39.093Z,101371.16
2022-10-18T02:26:06.292Z,101371.16
2022-10-18T02:28:32.795Z,101370.78
2022-10-18T02:31:12.885Z,101366.53
2022-10-18T02:33:49.327Z,101370.41
2022-10-18T02:36:24.044Z,101355.78
2022-10-18T02:38:55.005Z,101360.41
2022-10-18T02:41:27.036Z,101354.59
2022-10-18T02:43:53.878Z,101362.28
2022-10-18T02:46:21.036Z,101352.31
2022-10-18T02:48:47.646Z,101351.56
2022-10-18T02:51:14.329Z,101352.69
2022-10-18T02:53:41.168Z,101363.09
2022-10-18T02:56:07.953Z,101360.00
2022-10-18T02:58:34.575Z,101353.88
2022-10-18T03:01:01.058Z,101362.66
2022-10-18T03:03:27.543Z,101351.91
2022-10-18T03:05:54.002Z,101349.22
2022-10-18T03:08:22.612Z,101360.78
2022-10-18T03:10:49.162Z,101354.25
2022-10-18T03:13:15.876Z,101362.31
2022-10-18T03:15:42.578Z,101362.69
2022-10-18T03:18:09.353Z,101361.19
2022-10-18T03:20:36.764Z,101366.53
2022-10-18T03:23:03.408Z,101374.22
2022-10-18T03:25:29.900Z,101389.56
2022-10-18T03:27:56.405Z,101393.38
2022-10-18T03:30:22.873Z,101407.28
2022-10-18T03:32:49.408Z,101408.31
2022-10-18T03:35:16.073Z,101406.44
2022-10-18T03:37:42.600Z,101421.09
2022-10-18T03:40:09.452Z,101446.44
2022-10-18T03:42:35.957Z,101464.88
2022-10-18T03:45:02.453Z,101458.63
2022-10-18T03:47:28.944Z,101443.28
2022-10-18T03:49:57.223Z,101438.25
2022-10-18T03:52:24.441Z,101433.13
2022-10-18T03:54:50.948Z,101436.69
2022-10-18T03:57:17.596Z,101409.81
2022-10-18T03:59:44.083Z,101424.56
2022-10-18T04:02:10.624Z,101421.63
2022-10-18T04:04:37.081Z,101418.09
2022-10-18T04:07:03.570Z,101423.84
2022-10-18T04:09:30.021Z,101430.25
2022-10-18T04:11:56.495Z,101425.06
2022-10-18T04:14:23.047Z,101407.91
2022-10-18T04:16:49.608Z,101388.19
2022-10-18T04:19:16.354Z,101379.75
2022-10-18T04:21:42.802Z,101387.75
2022-10-18T04:24:09.286Z,101383.84
2022-10-18T04:26:35.760Z,101390.91
2022-10-18T04:29:02.340Z,101394.84
2022-10-18T04:31:28.876Z,101381.81
2022-10-18T04:33:55.367Z,101421.06
2022-10-18T04:36:21.851Z,101453.72
2022-10-18T04:38:48.386Z,101468.63
2022-10-18T04:41:14.919Z,101445.47
2022-10-18T04:43:41.401Z,101423.47
2022-10-18T04:46:07.927Z,101442.31
2022-10-18T04:48:34.390Z,101445.03
2022-10-18T04:51:00.906Z,101442.38
2022-10-18T04:53:27.370Z,101437.22
2022-10-18T04:55:53.836Z,101450.97
2022-10-18T04:58:20.594Z,101440.09
2022-10-18T05:00:47.739Z,101433.69
2022-10-18T05:03:14.813Z,101431.34
2022-10-18T05:06:00.767Z,101438.66
2022-10-18T05:08:28.348Z,101440.19
2022-10-18T05:10:54.810Z,101444.34
2022-10-18T05:13:21.440Z,101446.66
2022-10-18T05:15:47.965Z,101435.41
2022-10-18T05:18:14.779Z,101426.69
2022-10-18T05:20:41.301Z,101427.84
2022-10-18T05:23:10.682Z,101422.94
2022-10-18T05:25:41.829Z,101420.19
2022-10-18T05:28:10.957Z,101424.03
2022-10-18T05:30:42.880Z,101409.78
2022-10-18T05:33:09.531Z,101412.56
2022-10-18T05:35:36.585Z,101411.19
2022-10-18T05:38:05.767Z,101405.38
2022-10-18T05:40:33.473Z,101405.00
2022-10-18T05:43:00.015Z,101395.97
2022-10-18T05:45:26.671Z,101392.63
2022-10-18T05:47:54.067Z,101393.59
2022-10-18T05:50:20.560Z,101395.59
2022-10-18T05:52:47.058Z,101388.00
2022-10-18T05:55:13.676Z,101388.44
2022-10-18T05:57:40.146Z,101386.53
2022-10-18T06:00:07.204Z,101389.94
2022-10-18T06:02:33.825Z,101379.50
2022-10-18T06:05:00.323Z,101380.78
2022-10-18T06:07:26.808Z,101382.38
2022-10-18T06:09:53.253Z,101386.25
2022-10-18T06:12:19.776Z,101386.25
2022-10-18T06:14:46.310Z,101414.13
2022-10-18T06:17:12.923Z,101445.28
2022-10-18T06:19:39.418Z,101467.94
2022-10-18T06:22:05.906Z,101461.53
2022-10-18T06:24:32.379Z,101444.25
2022-10-18T06:26:58.990Z,101438.72
2022-10-18T06:29:25.538Z,101445.28
2022-10-18T06:31:52.063Z,101422.00
2022-10-18T06:34:18.654Z,101425.09
2022-10-18T06:36:45.109Z,101432.34
2022-10-18T06:39:11.561Z,101421.25
2022-10-18T06:41:38.042Z,101427.03
2022-10-18T06:44:13.463Z,101423.56
2022-10-18T06:46:44.297Z,101426.91
2022-10-18T06:49:13.106Z,101441.00
2022-10-18T06:51:42.918Z,101440.53
2022-10-18T06:54:18.355Z,101453.03
2022-10-18T06:56:45.592Z,101449.94
2022-10-18T06:59:12.199Z,101446.78
2022-10-18T07:01:38.851Z,101472.34
2022-10-18T07:04:05.516Z,101479.41
2022-10-18T07:06:32.012Z,101492.78
2022-10-18T07:08:58.599Z,101497.72
2022-10-18T07:11:26.993Z,101499.22
2022-10-18T07:13:55.737Z,101504.22
2022-10-18T07:16:22.218Z,101500.66
2022-10-18T07:18:51.253Z,101488.16
2022-10-18T07:21:20.527Z,101480.44
2022-10-18T07:23:48.039Z,101466.50
2022-10-18T07:26:21.586Z,101462.97
2022-10-18T07:28:52.147Z,101467.06
2022-10-18T07:31:18.789Z,101482.31
2022-10-18T07:33:45.268Z,101484.00
2022-10-18T07:36:13.097Z,101481.81
2022-10-18T07:38:39.978Z,101495.88
2022-10-18T07:41:08.117Z,101492.78
2022-10-18T07:43:35.486Z,101499.84
2022-10-18T07:46:04.623Z,101501.03
2022-10-18T07:48:31.484Z,101507.25
2022-10-18T07:50:59.556Z,101509.94
2022-10-18T07:53:26.709Z,101503.38
2022-10-18T07:55:58.947Z,101511.56
2022-10-18T07:58:25.552Z,101507.09
2022-10-18T08:00:52.088Z,101507.91
2022-10-18T08:03:18.947Z,101509.66
2022-10-18T08:05:52.792Z,101498.41
2022-10-18T08:08:20.635Z,101499.13
2022-10-18T08:10:47.245Z,101505.44
2022-10-18T08:13:14.295Z,101500.63
2022-10-18T08:15:44.768Z,101501.84
2022-10-18T08:18:11.706Z,101502.19
2022-10-18T08:20:43.951Z,101507.56
2022-10-18T08:23:10.662Z,101510.97
2022-10-18T08:25:37.281Z,101520.25
2022-10-18T08:28:04.101Z,101521.38
2022-10-18T08:30:30.835Z,101518.00
2022-10-18T08:32:57.613Z,101524.88
2022-10-18T08:35:24.205Z,101532.22
2022-10-18T08:37:51.250Z,101524.03
2022-10-18T08:40:17.870Z,101527.69
2022-10-18T08:42:57.881Z,101532.16
2022-10-18T08:45:40.965Z,101540.25
2022-10-18T08:48:21.622Z,101532.59
2022-10-18T08:50:49.650Z,101539.09
2022-10-18T08:53:31.395Z,101540.63
2022-10-18T08:56:11.454Z,101540.97
2022-10-18T08:58:38.505Z,101542.56
2022-10-18T09:01:17.095Z,101533.72
2022-10-18T09:04:21.122Z,101537.16
2022-10-18T09:07:25.544Z,101543.16
2022-10-18T09:10:13.657Z,101541.06
2022-10-18T09:13:08.880Z,101538.44
2022-10-18T09:15:59.306Z,101541.13
2022-10-18T09:19:08.527Z,101546.22
2022-10-18T09:21:43.671Z,101538.47
2022-10-18T09:24:32.090Z,101550.44
2022-10-18T09:27:05.738Z,101549.69
2022-10-18T09:29:50.768Z,101548.84
2022-10-18T09:32:51.274Z,101555.03
2022-10-18T09:35:40.246Z,101551.59
2022-10-18T09:38:12.307Z,101561.53
2022-10-18T09:40:52.608Z,101551.38
2022-10-18T09:43:24.936Z,101555.50
2022-10-18T09:45:54.343Z,101552.09
2022-10-18T09:48:31.147Z,101556.28
2022-10-18T09:51:11.388Z,101558.13
2022-10-18T09:53:46.055Z,101558.16
2022-10-18T09:56:25.716Z,101553.44
2022-10-18T09:58:52.555Z,101552.69
2022-10-18T10:01:25.551Z,101556.22
2022-10-18T10:03:52.439Z,101549.91
2022-10-18T10:06:30.589Z,101557.81
2022-10-18T10:09:08.281Z,101550.78
2022-10-18T10:11:50.143Z,101563.59
2022-10-18T10:14:22.388Z,101567.22
2022-10-18T10:16:57.248Z,101565.44
2022-10-18T10:19:56.471Z,101572.47
2022-10-18T10:22:39.892Z,101575.38
2022-10-18T10:25:21.527Z,101579.28
2022-10-18T10:27:48.124Z,101581.28
2022-10-18T10:30:24.334Z,101584.34
2022-10-18T10:32:53.008Z,101585.16
2022-10-18T10:35:53.431Z,101580.22
2022-10-18T10:38:25.646Z,101581.38
2022-10-18T10:40:52.629Z,101581.78
2022-10-18T10:43:37.718Z,101575.91
2022-10-18T10:46:09.726Z,101582.22
2022-10-18T10:48:49.348Z,101581.13
2022-10-18T10:51:18.821Z,101577.56
2022-10-18T10:54:00.175Z,101585.16
2022-10-18T10:56:33.276Z,101584.06
2022-10-18T10:59:18.241Z,101588.19
2022-10-18T11:01:49.630Z,101581.41
2022-10-18T11:04:30.755Z,101580.50
2022-10-18T11:07:17.388Z,101584.59
2022-10-18T11:09:58.729Z,101593.78
2022-10-18T11:12:35.197Z,101571.78
2022-10-18T11:15:14.002Z,101588.81
2022-10-18T11:17:59.735Z,101585.19
2022-10-18T11:20:35.514Z,101584.91
2022-10-18T11:23:07.189Z,101580.13
2022-10-18T11:26:01.296Z,101578.94
2022-10-18T11:28:36.855Z,101582.59
2022-10-18T11:31:32.432Z,101577.56
2022-10-18T11:34:30.125Z,101573.91
2022-10-18T11:37:27.682Z,101582.78
2022-10-18T11:40:05.997Z,101578.59
2022-10-18T11:42:58.374Z,101584.44
2022-10-18T11:45:42.199Z,101583.13
2022-10-18T11:48:25.668Z,101586.13
2022-10-18T11:51:12.991Z,101584.28
2022-10-18T11:54:02.547Z,101585.63
2022-10-18T11:56:57.651Z,101580.56
2022-10-18T11:59:45.450Z,101579.38
2022-10-18T12:02:30.835Z,101574.16
2022-10-18T12:08:03.876Z,101582.53
2022-10-18T12:10:45.957Z,101575.78
2022-10-18T12:13:51.067Z,101576.38
2022-10-18T12:16:38.987Z,101572.31
2022-10-18T12:19:23.739Z,101576.06
2022-10-18T12:22:00.097Z,101572.44
2022-10-18T12:24:30.225Z,101563.81
2022-10-18T12:27:18.996Z,101565.97
2022-10-18T12:30:00.867Z,101571.28
2022-10-18T12:32:33.244Z,101560.03
2022-10-18T12:35:06.004Z,101564.47
2022-10-18T12:37:55.252Z,101562.06
2022-10-18T12:40:41.964Z,101566.84
2022-10-18T12:43:10.991Z,101556.72
2022-10-18T12:45:54.034Z,101555.25
2022-10-18T12:48:31.523Z,101544.47
2022-10-18T12:51:03.337Z,101548.06
2022-10-18T12:53:31.612Z,101551.72
2022-10-18T12:56:39.906Z,101552.66
2022-10-18T12:59:26.675Z,101549.81
2022-10-18T13:02:05.489Z,101550.34
2022-10-18T13:04:35.249Z,101549.69
2022-10-18T13:07:04.849Z,101549.28
2022-10-18T13:09:36.478Z,101551.78
2022-10-18T13:12:08.830Z,101549.66
2022-10-18T13:15:05.980Z,101545.59
2022-10-18T13:17:47.042Z,101542.66
2022-10-18T13:20:54.746Z,101547.09
2022-10-18T13:23:41.333Z,101550.97
2022-10-18T13:26:20.343Z,101553.25
2022-10-18T13:29:09.646Z,101550.63
2022-10-18T13:31:49.543Z,101550.53
2022-10-18T13:34:24.894Z,101551.94
2022-10-18T13:37:09.737Z,101542.66
2022-10-18T13:39:37.958Z,101547.31
2022-10-18T13:42:27.818Z,101544.84
2022-10-18T13:44:54.383Z,101548.41
2022-10-18T13:47:37.570Z,101540.84
2022-10-18T13:50:30.811Z,101545.59
2022-10-18T13:53:16.096Z,101551.31
2022-10-18T13:55:49.819Z,101553.41
2022-10-18T13:58:28.951Z,101559.00
2022-10-18T14:01:01.489Z,101550.38
2022-10-18T14:04:04.337Z,101565.16
2022-10-18T14:06:37.297Z,101561.41
2022-10-18T14:09:25.530Z,101557.59
2022-10-18T14:12:07.344Z,101554.66
2022-10-18T14:14:42.812Z,101560.22
2022-10-18T14:17:27.075Z,101561.38
2022-10-18T14:20:00.050Z,101557.03
2022-10-18T14:22:40.185Z,101555.41
2022-10-18T14:25:22.252Z,101564.34
2022-10-18T14:27:52.260Z,101552.81
2022-10-18T14:30:21.190Z,101561.19
2022-10-18T14:32:50.264Z,101558.38
2022-10-18T14:35:32.058Z,101561.28
2022-10-18T14:37:59.941Z,101555.06
2022-10-18T14:40:36.281Z,101566.41
2022-10-18T14:43:14.732Z,101560.38
2022-10-18T14:45:42.592Z,101571.75
2022-10-18T14:48:20.488Z,101573.81
2022-10-18T14:50:50.243Z,101571.75
2022-10-18T14:53:21.972Z,101577.66
2022-10-18T14:55:57.831Z,101578.59
2022-10-18T14:58:24.629Z,101577.09
2022-10-18T15:00:51.250Z,101575.09
2022-10-18T15:03:18.709Z,101572.19
2022-10-18T15:06:15.422Z,101573.31
2022-10-18T15:08:43.411Z,101567.66
2022-10-18T15:11:14.307Z,101573.72
2022-10-18T15:14:11.547Z,101569.31
2022-10-18T15:16:39.642Z,101567.19
2022-10-18T15:19:15.210Z,101571.44
2022-10-18T15:22:30.247Z,101583.34
2022-10-18T15:25:05.873Z,101590.31
2022-10-18T15:27:36.167Z,101582.53
2022-10-18T15:30:22.504Z,101580.63
2022-10-18T15:32:54.921Z,101583.78
2022-10-18T15:35:39.629Z,101586.09
2022-10-18T15:38:31.766Z,101578.91
2022-10-18T15:40:58.798Z,101572.25
2022-10-18T15:43:28.174Z,101573.75
2022-10-18T15:46:06.786Z,101575.38
2022-10-18T15:48:37.176Z,101576.22
2022-10-18T15:51:09.016Z,101582.03
2022-10-18T15:53:51.293Z,101590.19
2022-10-18T15:56:30.033Z,101585.16
2022-10-18T15:58:59.024Z,101584.44
2022-10-18T16:01:42.947Z,101589.47
2022-10-18T16:04:20.276Z,101586.00
2022-10-18T16:06:46.764Z,101589.47
2022-10-18T16:09:17.047Z,101580.22
2022-10-18T16:11:44.059Z,101584.81
2022-10-18T16:14:11.001Z,101581.75
2022-10-18T16:16:39.130Z,101574.69
2022-10-18T16:19:06.098Z,101574.59
2022-10-18T16:21:35.898Z,101572.44
2022-10-18T16:24:02.889Z,101572.91
2022-10-18T16:26:29.569Z,101580.22
2022-10-18T16:28:57.952Z,101584.81
2022-10-18T16:31:29.240Z,101586.75
2022-10-18T16:33:56.530Z,101594.88
2022-10-18T16:36:26.122Z,101590.69
2022-10-18T16:38:54.834Z,101593.34
2022-10-18T16:41:21.891Z,101601.81
2022-10-18T16:43:49.522Z,101591.41
2022-10-18T16:46:17.336Z,101594.09
2022-10-18T16:48:44.774Z,101591.75
2022-10-18T16:51:11.924Z,101607.56
2022-10-18T16:53:38.464Z,101602.84
2022-10-18T16:56:11.501Z,101608.41
2022-10-18T16:58:38.011Z,101613.22
2022-10-18T17:01:08.011Z,101615.81
2022-10-18T17:03:35.892Z,101619.94
2022-10-18T17:06:02.699Z,101619.47
2022-10-18T17:08:29.377Z,101622.09
2022-10-18T17:10:58.366Z,101626.69
2022-10-18T17:13:26.350Z,101631.03
2022-10-18T17:15:53.623Z,101624.44
2022-10-18T17:18:30.378Z,101637.13
2022-10-18T17:20:59.260Z,101637.91
2022-10-18T17:23:26.094Z,101641.31
2022-10-18T17:26:06.748Z,101640.50
2022-10-18T17:28:36.399Z,101644.69
2022-10-18T17:31:05.998Z,101651.34
2022-10-18T17:33:32.815Z,101646.72
2022-10-18T17:35:59.349Z,101647.59
2022-10-18T17:38:25.916Z,101647.25
2022-10-18T17:40:53.308Z,101648.41
2022-10-18T17:43:20.052Z,101651.50
2022-10-18T17:45:54.228Z,101646.47
2022-10-18T17:48:21.346Z,101651.28
2022-10-18T17:50:48.060Z,101655.22
2022-10-18T17:53:14.995Z,101647.94
2022-10-18T17:55:41.510Z,101650.38
2022-10-18T17:58:08.231Z,101645.34
2022-10-18T18:00:34.842Z,101642.09
2022-10-18T18:03:01.675Z,101647.38
2022-10-18T18:05:33.455Z,101646.56
2022-10-18T18:08:03.814Z,101648.88
2022-10-18T18:10:33.580Z,101653.38
2022-10-18T18:13:00.795Z,101653.41
2022-10-18T18:15:27.558Z,101658.69
2022-10-18T18:17:57.861Z,101650.19
2022-10-18T18:20:25.865Z,101647.06
2022-10-18T18:22:52.411Z,101653.78
2022-10-18T18:25:18.946Z,101650.25
2022-10-18T18:27:45.470Z,101659.94
2022-10-18T18:30:12.451Z,101652.97
2022-10-18T18:32:39.029Z,101651.09
2022-10-18T18:35:05.909Z,101647.88
2022-10-18T18:37:32.777Z,101647.19
2022-10-18T18:39:59.427Z,101639.19
2022-10-18T18:42:25.900Z,101645.31
2022-10-18T18:44:52.405Z,101633.34
2022-10-18T18:47:21.457Z,101645.44
2022-10-18T18:49:48.372Z,101644.94
2022-10-18T18:52:14.900Z,101636.88
2022-10-18T18:54:41.359Z,101648.41
2022-10-18T18:57:07.932Z,101652.06
2022-10-18T18:59:34.512Z,101651.47
2022-10-18T19:02:01.001Z,101657.09
2022-10-18T19:04:28.908Z,101658.91
2022-10-18T19:06:56.015Z,101652.25
2022-10-18T19:09:22.989Z,101653.06
2022-10-18T19:11:52.772Z,101659.56
2022-10-18T19:14:20.043Z,101655.41
2022-10-18T19:16:49.013Z,101657.44
2022-10-18T19:19:26.243Z,101667.75
2022-10-18T19:21:55.414Z,101661.84
2022-10-18T19:24:23.565Z,101655.53
2022-10-18T19:26:56.807Z,101662.56
2022-10-18T19:29:25.731Z,101667.06
2022-10-18T19:31:54.253Z,101669.06
2022-10-18T19:34:22.177Z,101663.50
2022-10-18T19:36:50.273Z,101660.97
2022-10-18T19:39:22.390Z,101656.31
2022-10-18T19:41:51.906Z,101662.47
2022-10-18T19:44:20.029Z,101665.56
2022-10-18T19:46:47.306Z,101653.22
2022-10-18T19:49:13.798Z,101653.53
2022-10-18T19:51:40.749Z,101647.72
2022-10-18T19:54:07.468Z,101654.41
2022-10-18T19:56:34.064Z,101647.56
2022-10-18T19:59:01.235Z,101649.91
2022-10-18T20:01:29.093Z,101661.25
2022-10-18T20:03:56.421Z,101659.53
2022-10-18T20:06:23.471Z,101661.41
2022-10-18T20:08:50.616Z,101662.34
2022-10-18T20:11:20.333Z,101664.38
2022-10-18T20:13:47.704Z,101659.31
2022-10-18T20:16:15.592Z,101661.28
2022-10-18T20:18:45.009Z,101665.19
2022-10-18T20:21:14.091Z,101662.63
2022-10-18T20:23:41.989Z,101665.97
2022-10-18T20:26:15.542Z,101663.13
2022-10-18T20:28:45.559Z,101661.97
2022-10-18T20:31:20.300Z,101656.41
2022-10-18T20:33:53.070Z,101668.63
2022-10-18T20:36:19.617Z,101659.09
2022-10-18T20:38:47.521Z,101666.31
2022-10-18T20:41:20.266Z,101663.50
2022-10-18T20:43:57.670Z,101662.81
2022-10-18T20:46:24.906Z,101658.44
2022-10-18T20:48:52.581Z,101657.78
2022-10-18T20:51:20.063Z,101651.00
2022-10-18T20:53:46.893Z,101658.59
2022-10-18T20:56:16.618Z,101648.34
2022-10-18T20:58:44.378Z,101662.00
2022-10-18T21:01:17.592Z,101652.84
2022-10-18T21:03:45.894Z,101668.63
2022-10-18T21:06:17.865Z,101659.47
2022-10-18T21:08:45.386Z,101655.88
2022-10-18T21:11:12.998Z,101668.22
2022-10-18T21:13:40.856Z,101659.38
2022-10-18T21:16:08.038Z,101659.53
2022-10-18T21:18:36.492Z,101658.22
2022-10-18T21:23:40.449Z,101666.75
2022-10-18T21:26:08.076Z,101666.03
2022-10-18T21:28:35.003Z,101667.88
2022-10-18T21:31:21.971Z,101666.09
2022-10-18T21:33:56.269Z,101664.66
2022-10-18T21:36:24.253Z,101655.41
2022-10-18T21:38:51.138Z,101657.28
2022-10-18T21:41:20.150Z,101651.88
2022-10-18T21:43:49.162Z,101654.09
2022-10-18T21:46:16.911Z,101656.00
2022-10-18T21:48:48.535Z,101653.47
2022-10-18T21:51:20.139Z,101653.81
2022-10-18T21:53:48.306Z,101650.72
2022-10-18T21:56:17.505Z,101647.78
2022-10-18T21:58:44.899Z,101653.53
2022-10-18T22:01:15.153Z,101649.84
2022-10-18T22:03:42.602Z,101649.44
2022-10-18T22:06:16.169Z,101641.06
2022-10-18T22:08:49.966Z,101644.69
2022-10-18T22:11:17.907Z,101650.63
2022-10-18T22:13:45.189Z,101654.94
2022-10-18T22:16:14.440Z,101648.81
2022-10-18T22:18:42.007Z,101648.44
2022-10-18T22:21:10.172Z,101652.00
2022-10-18T22:23:48.962Z,101646.22
2022-10-18T22:26:18.326Z,101648.72
2022-10-18T22:28:45.832Z,101644.47
2022-10-18T22:31:20.659Z,101642.44
2022-10-18T22:33:47.598Z,101644.59
2022-10-18T22:36:14.155Z,101646.31
2022-10-18T22:38:40.636Z,101645.31
2022-10-18T22:41:09.143Z,101646.06
2022-10-18T22:43:36.212Z,101645.84
2022-10-18T22:46:05.105Z,101647.47
2022-10-18T22:48:31.781Z,101642.19
2022-10-18T22:50:58.249Z,101639.44
2022-10-18T22:53:24.955Z,101643.41
2022-10-18T22:55:52.134Z,101634.81
2022-10-18T22:58:19.549Z,101634.19
2022-10-18T23:00:46.399Z,101635.03
2022-10-18T23:03:15.797Z,101638.53
2022-10-18T23:05:44.014Z,101635.94
2022-10-18T23:08:11.924Z,101632.91
2022-10-18T23:10:40.657Z,101629.53
2022-10-18T23:13:08.739Z,101629.44
2022-10-18T23:15:35.495Z,101631.94
2022-10-18T23:18:02.177Z,101638.19
2022-10-18T23:20:28.643Z,101638.16
2022-10-18T23:22:55.146Z,101636.22
2022-10-18T23:25:21.807Z,101649.75
2022-10-18T23:27:48.427Z,101640.00
2022-10-18T23:30:14.851Z,101652.09
2022-10-18T23:32:41.267Z,101643.25
2022-10-18T23:35:08.120Z,101645.59
2022-10-18T23:37:35.060Z,101651.34
2022-10-18T23:40:01.764Z,101650.66
2022-10-18T23:42:28.253Z,101648.41
2022-10-18T23:44:54.666Z,101645.34
2022-10-18T23:47:21.174Z,101644.66
2022-10-18T23:49:47.648Z,101655.09
2022-10-18T23:52:14.137Z,101655.38
2022-10-18T23:54:40.668Z,101655.38
2022-10-18T23:57:07.190Z,101660.28
2022-10-18T23:59:33.667Z,101666.75
